Time;durP1;ratioP1;P1;durP2;ratioP2;P2;SDS_P1;SDS_P2;PMS_P1;PMS_P2;Temp;Humidity;BMP_temperature;BMP_pressure;BME280_temperature;BME280_humidity;BME280_pressure;Samples;Min_cycle;Max_cycle;Signal;HPM_P1;HPM_P2
2023/07/11 00:00:44;;;;;;;3.88;1.70;;;23.40;84.10;;;;;;5027924;28;20048;-72
2023/07/11 00:03:11;;;;;;;4.63;1.80;;;23.30;84.10;;;;;;5043666;28;20396;-73
2023/07/11 00:05:37;;;;;;;3.95;1.80;;;22.70;85.80;;;;;;5042535;28;20124;-72
2023/07/11 00:08:04;;;;;;;4.40;2.20;;;22.60;86.40;;;;;;5044835;28;20542;-73
2023/07/11 00:10:30;;;;;;;4.30;2.13;;;22.70;87.70;;;;;;5027448;28;20495;-72
2023/07/11 00:12:55;;;;;;;3.40;1.77;;;22.80;87.50;;;;;;5028555;28;20025;-72
2023/07/11 00:15:21;;;;;;;4.63;1.92;;;22.90;87.30;;;;;;5027881;28;20037;-73
2023/07/11 00:17:48;;;;;;;5.90;2.20;;;22.90;87.60;;;;;;5042976;28;20029;-73
2023/07/11 00:20:16;;;;;;;5.28;2.40;;;23.00;88.10;;;;;;5043095;28;20097;-72
2023/07/11 00:22:44;;;;;;;7.22;2.25;;;22.80;88.30;;;;;;5026508;28;20031;-72
2023/07/11 00:25:10;;;;;;;4.03;2.03;;;22.90;89.40;;;;;;5008885;28;20029;-73
2023/07/11 00:27:36;;;;;;;4.63;1.73;;;23.00;89.70;;;;;;5035288;28;20029;-72
2023/07/11 00:30:04;;;;;;;8.80;2.60;;;23.30;89.40;;;;;;5040348;28;20031;-73
2023/07/11 00:32:30;;;;;;;5.55;1.75;;;23.30;88.40;;;;;;5043403;28;20021;-73
2023/07/11 00:34:56;;;;;;;3.13;1.80;;;23.20;88.70;;;;;;5023476;28;20034;-72
2023/07/11 00:37:22;;;;;;;4.05;2.30;;;23.10;88.60;;;;;;5028688;28;20090;-72
2023/07/11 00:39:48;;;;;;;7.03;1.95;;;22.90;89.90;;;;;;5021991;28;20041;-73
2023/07/11 00:42:14;;;;;;;3.17;1.50;;;22.80;90.40;;;;;;5045666;28;20036;-73
2023/07/11 00:44:57;;;;;;;5.65;2.03;;;22.70;90.80;;;;;;5039339;28;20044;-73
2023/07/11 00:47:26;;;;;;;4.32;1.70;;;22.70;91.60;;;;;;5044176;28;20052;-73
2023/07/11 00:50:02;;;;;;;5.78;1.85;;;22.50;92.20;;;;;;5022976;28;20033;-73
2023/07/11 00:52:28;;;;;;;6.45;2.28;;;22.40;92.80;;;;;;5028961;28;20029;-73
2023/07/11 00:55:02;;;;;;;3.90;1.85;;;22.30;92.90;;;;;;5040442;28;20497;-72
2023/07/11 00:57:32;;;;;;;6.03;2.00;;;22.20;92.90;;;;;;5025041;28;20051;-73
2023/07/11 00:59:58;;;;;;;4.63;1.90;;;22.10;92.80;;;;;;5040416;28;20113;-72
2023/07/11 01:02:27;;;;;;;5.22;1.90;;;22.20;93.00;;;;;;5043632;28;20033;-73
2023/07/11 01:04:54;;;;;;;3.85;1.48;;;22.20;93.10;;;;;;5021514;28;20489;-72
2023/07/11 01:07:29;;;;;;;3.42;2.00;;;22.60;92.90;;;;;;5007037;28;20070;-73
2023/07/11 01:09:55;;;;;;;2.72;1.77;;;22.50;92.70;;;;;;5025628;28;20033;-72
2023/07/11 01:12:21;;;;;;;4.53;1.75;;;22.50;92.90;;;;;;5042147;28;20530;-73
2023/07/11 01:14:50;;;;;;;9.63;1.63;;;22.30;93.40;;;;;;5041302;28;20583;-72
2023/07/11 01:17:30;;;;;;;5.70;2.13;;;22.60;93.90;;;;;;5029234;28;20033;-73
2023/07/11 01:19:59;;;;;;;6.80;2.58;;;22.70;93.90;;;;;;5042251;28;20043;-73
2023/07/11 01:22:28;;;;;;;4.68;2.05;;;22.40;94.80;;;;;;5027834;28;20029;-75
2023/07/11 01:27:27;;;;;;;5.07;2.05;;;22.50;94.70;;;;;;4983226;28;20065;-71
2023/07/11 01:29:53;;;;;;;4.88;1.95;;;22.40;94.50;;;;;;4982789;28;20026;-73
2023/07/11 01:32:19;;;;;;;4.82;2.20;;;22.50;94.60;;;;;;4985037;28;20436;-72
2023/07/11 01:34:45;;;;;;;5.55;1.80;;;22.80;94.20;;;;;;4981373;28;20046;-72
2023/07/11 01:37:11;;;;;;;3.90;1.70;;;22.60;94.20;;;;;;4985346;28;20030;-72
2023/07/11 01:39:37;;;;;;;4.10;1.92;;;22.40;94.90;;;;;;4982700;28;20026;-72
2023/07/11 01:42:04;;;;;;;7.22;2.90;;;22.20;95.80;;;;;;4983632;28;20113;-72
2023/07/11 01:44:30;;;;;;;5.25;1.90;;;22.00;96.80;;;;;;4948975;28;20026;-72
2023/07/11 01:46:57;;;;;;;4.30;2.45;;;21.90;96.90;;;;;;4983662;28;20030;-72
2023/07/11 01:49:23;;;;;;;3.78;2.05;;;21.90;97.70;;;;;;4982456;28;20018;-72
2023/07/11 01:52:00;;;;;;;4.28;1.85;;;22.10;97.20;;;;;;4981386;28;20050;-73
2023/07/11 01:54:26;;;;;;;7.45;2.42;;;22.10;97.10;;;;;;4977912;28;20030;-73
2023/07/11 01:56:52;;;;;;;3.45;1.73;;;21.90;97.70;;;;;;4983604;28;20038;-72
2023/07/11 01:59:17;;;;;;;6.15;1.95;;;21.60;98.70;;;;;;4979114;28;21829;-72
2023/07/11 02:01:43;;;;;;;3.90;1.63;;;21.50;99.50;;;;;;4972912;28;20616;-72
2023/07/11 02:04:09;;;;;;;5.13;2.40;;;21.60;99.40;;;;;;4970691;28;20498;-73
2023/07/11 02:06:34;;;;;;;4.05;1.80;;;21.60;99.90;;;;;;4970671;28;20039;-73
2023/07/11 02:09:02;;;;;;;4.03;2.00;;;21.40;99.90;;;;;;4971535;28;20035;-73
2023/07/11 02:11:28;;;;;;;4.88;1.80;;;21.10;99.90;;;;;;4969335;28;20018;-72
2023/07/11 02:13:54;;;;;;;6.43;2.10;;;20.80;99.90;;;;;;4968727;28;20399;-72
2023/07/11 02:16:19;;;;;;;6.43;2.83;;;20.60;99.90;;;;;;4970578;28;20128;-72
2023/07/11 02:18:45;;;;;;;9.60;1.92;;;20.60;99.90;;;;;;4970800;28;20041;-72
2023/07/11 02:21:11;;;;;;;3.45;2.00;;;20.50;99.90;;;;;;4966826;28;20054;-72
2023/07/11 02:23:36;;;;;;;5.93;2.20;;;20.40;99.90;;;;;;4972238;28;20034;-72
2023/07/11 02:26:02;;;;;;;3.63;1.90;;;20.20;99.90;;;;;;4972697;28;20450;-73
2023/07/11 02:28:28;;;;;;;3.10;1.65;;;20.10;99.90;;;;;;4971083;28;20034;-72
2023/07/11 02:30:55;;;;;;;3.72;1.92;;;20.10;99.90;;;;;;4983815;28;20030;-73
2023/07/11 02:33:20;;;;;;;3.17;1.75;;;20.20;99.90;;;;;;4983033;28;20033;-73
2023/07/11 02:35:46;;;;;;;4.97;1.77;;;20.30;99.90;;;;;;4986862;28;20118;-73
2023/07/11 02:38:12;;;;;;;3.63;1.70;;;20.10;99.90;;;;;;4985254;28;20041;-72
2023/07/11 02:40:38;;;;;;;8.10;2.65;;;20.10;99.90;;;;;;4987871;28;20030;-72
2023/07/11 02:43:03;;;;;;;4.20;1.92;;;20.10;99.90;;;;;;4984158;28;20049;-73
2023/07/11 02:45:29;;;;;;;3.53;1.60;;;20.30;99.90;;;;;;4988662;28;20105;-73
2023/07/11 02:47:55;;;;;;;2.70;1.40;;;20.40;99.90;;;;;;4968391;28;20427;-72
2023/07/11 02:50:21;;;;;;;4.97;2.08;;;20.40;99.90;;;;;;4988681;28;20026;-72
2023/07/11 02:52:47;;;;;;;2.67;1.65;;;20.40;99.90;;;;;;4984807;28;20069;-72
2023/07/11 02:55:13;;;;;;;3.35;1.63;;;20.30;99.90;;;;;;4986758;28;20490;-72
2023/07/11 02:57:42;;;;;;;3.28;1.65;;;20.30;99.90;;;;;;4984908;28;20134;-72
2023/07/11 03:00:09;;;;;;;3.88;1.92;;;20.30;99.90;;;;;;4987483;28;20035;-73
2023/07/11 03:02:35;;;;;;;3.50;1.73;;;20.20;99.90;;;;;;4949155;28;20027;-72
2023/07/11 03:05:02;;;;;;;4.65;1.70;;;20.10;99.90;;;;;;4966573;28;20487;-72
2023/07/11 03:07:28;;;;;;;4.25;2.03;;;20.20;99.90;;;;;;4984293;28;20030;-73
2023/07/11 03:09:54;;;;;;;3.25;1.35;;;20.30;99.90;;;;;;4970275;28;20078;-72
2023/07/11 03:12:20;;;;;;;4.40;1.65;;;20.60;99.90;;;;;;4985980;28;20655;-72
2023/07/11 03:14:51;;;;;;;4.43;1.92;;;20.90;99.90;;;;;;4966483;28;20039;-72
2023/07/11 03:17:17;;;;;;;;;;;20.90;99.90;;;;;;4986198;28;20038;-72
2023/07/11 03:19:43;;;;;;;5.57;2.38;;;20.90;99.90;;;;;;4966423;28;19921;-72
2023/07/11 03:22:08;;;;;;;6.18;3.13;;;20.70;99.90;;;;;;4986276;28;20030;-72
2023/07/11 03:24:34;;;;;;;6.35;2.55;;;20.60;99.90;;;;;;4966311;28;20034;-72
2023/07/11 03:27:00;;;;;;;6.82;3.50;;;20.40;99.90;;;;;;4985086;28;20391;-72
2023/07/11 03:29:26;;;;;;;7.00;3.22;;;20.40;99.90;;;;;;4984229;28;20022;-73
2023/07/11 03:31:51;;;;;;;9.82;4.30;;;20.50;99.90;;;;;;4986254;28;20495;-73
2023/07/11 03:34:17;;;;;;;8.00;4.80;;;20.50;99.90;;;;;;4972512;28;20117;-73
2023/07/11 03:36:43;;;;;;;8.80;3.60;;;20.40;99.90;;;;;;4983937;28;20066;-73
2023/07/11 03:39:08;;;;;;;9.10;4.18;;;20.60;99.90;;;;;;4982651;28;20038;-72
2023/07/11 03:41:34;;;;;;;7.10;3.40;;;21.20;99.90;;;;;;4985901;28;20026;-72
2023/07/11 03:44:01;;;;;;;4.75;2.78;;;21.30;99.90;;;;;;4981466;28;20038;-72
2023/07/11 03:46:26;;;;;;;6.60;2.78;;;21.50;99.90;;;;;;4986216;28;20018;-71
2023/07/11 03:48:54;;;;;;;8.18;2.92;;;21.50;99.90;;;;;;4982563;28;20442;-69
2023/07/11 03:51:20;;;;;;;4.13;2.28;;;21.50;99.90;;;;;;4985812;28;20182;-69
2023/07/11 03:53:46;;;;;;;6.03;2.97;;;21.30;99.90;;;;;;4964052;28;20486;-69
2023/07/11 03:56:12;;;;;;;5.75;2.38;;;20.70;99.90;;;;;;4985937;28;20037;-70
2023/07/11 03:58:38;;;;;;;5.00;2.53;;;20.80;99.90;;;;;;4982594;28;20034;-70
2023/07/11 04:01:04;;;;;;;6.10;2.72;;;20.50;99.90;;;;;;4986572;28;20089;-70
2023/07/11 04:03:29;;;;;;;11.02;2.88;;;20.30;99.90;;;;;;4986131;28;20091;-70
2023/07/11 04:05:56;;;;;;;4.45;2.33;;;20.10;99.90;;;;;;4991008;28;20034;-70
2023/07/11 04:08:22;;;;;;;4.18;2.42;;;20.00;99.90;;;;;;4983197;28;20761;-70
2023/07/11 04:10:48;;;;;;;6.95;3.17;;;19.90;99.90;;;;;;4985968;28;20068;-70
2023/07/11 04:13:14;;;;;;;7.35;2.80;;;20.00;99.90;;;;;;4977420;28;20401;-70
2023/07/11 04:15:39;;;;;;;9.02;3.15;;;19.90;99.90;;;;;;4984429;28;20150;-71
2023/07/11 04:18:06;;;;;;;4.22;1.90;;;20.00;99.90;;;;;;4982577;28;20031;-71
2023/07/11 04:20:34;;;;;;;5.43;2.65;;;20.10;99.90;;;;;;4985147;28;20045;-70
2023/07/11 04:22:59;;;;;;;5.10;2.30;;;20.20;99.90;;;;;;4965327;28;20029;-70
2023/07/11 04:25:25;;;;;;;9.27;2.33;;;20.20;99.90;;;;;;4984582;28;20034;-71
2023/07/11 04:27:51;;;;;;;8.52;3.20;;;20.40;99.90;;;;;;4982950;28;20054;-70
2023/07/11 04:30:16;;;;;;;13.43;6.72;;;20.60;99.90;;;;;;4982823;28;20036;-70
2023/07/11 04:32:42;;;;;;;27.02;11.27;;;20.70;99.90;;;;;;4982338;28;20403;-71
2023/07/11 04:35:14;;;;;;;12.88;6.80;;;21.30;99.90;;;;;;4982417;28;20046;-70
2023/07/11 04:37:40;;;;;;;10.93;4.65;;;21.40;99.90;;;;;;4967506;28;20033;-69
2023/07/11 04:40:06;;;;;;;9.85;4.80;;;21.50;99.90;;;;;;4965230;28;20387;-70
2023/07/11 04:42:32;;;;;;;7.50;3.08;;;21.30;99.90;;;;;;4982357;28;20043;-70
2023/07/11 04:44:58;;;;;;;4.68;2.65;;;21.40;99.90;;;;;;4982178;28;20031;-71
2023/07/11 04:47:24;;;;;;;3.60;2.10;;;21.30;99.90;;;;;;4986793;28;20367;-70
2023/07/11 04:49:50;;;;;;;5.03;2.47;;;21.20;99.90;;;;;;4981891;28;20287;-72
2023/07/11 04:52:15;;;;;;;5.10;2.38;;;21.20;99.90;;;;;;4997355;28;20026;-72
2023/07/11 04:54:41;;;;;;;6.47;2.17;;;21.50;99.90;;;;;;4972293;28;20438;-65
2023/07/11 04:57:07;;;;;;;4.45;2.05;;;21.50;99.90;;;;;;4989780;28;20034;-67
2023/07/11 04:59:33;;;;;;;7.20;2.63;;;21.60;99.90;;;;;;4983296;28;20033;-68
2023/07/11 05:01:58;;;;;;;4.35;2.33;;;21.70;99.90;;;;;;4990651;28;20166;-67
2023/07/11 05:04:24;;;;;;;4.65;2.38;;;21.80;99.90;;;;;;4983238;28;20034;-67
2023/07/11 05:06:50;;;;;;;5.72;2.60;;;21.90;99.90;;;;;;4990732;28;20380;-67
2023/07/11 05:09:15;;;;;;;8.15;2.95;;;22.00;99.90;;;;;;4983815;28;20034;-70
2023/07/11 05:11:42;;;;;;;4.85;2.47;;;22.00;99.80;;;;;;4990285;28;20018;-67
2023/07/11 05:14:08;;;;;;;4.80;2.38;;;22.10;99.70;;;;;;4983104;28;20026;-69
2023/07/11 05:16:34;;;;;;;3.95;1.73;;;22.00;99.60;;;;;;4972015;28;20023;-66
2023/07/11 05:19:00;;;;;;;4.32;2.20;;;22.10;99.70;;;;;;4975261;28;20041;-68
2023/07/11 05:21:27;;;;;;;4.75;2.20;;;22.10;99.70;;;;;;4990626;28;20030;-70
2023/07/11 05:23:56;;;;;;;9.23;2.03;;;22.10;99.70;;;;;;4984552;28;20527;-68
2023/07/11 05:26:22;;;;;;;5.20;2.40;;;22.20;99.50;;;;;;4985604;28;20113;-69
2023/07/11 05:28:48;;;;;;;9.55;2.47;;;22.20;99.40;;;;;;4951537;28;20030;-68
2023/07/11 05:31:14;;;;;;;4.85;2.17;;;22.20;99.50;;;;;;4992083;28;20402;-68
2023/07/11 05:33:40;;;;;;;4.57;2.25;;;22.20;99.30;;;;;;4984613;28;20487;-68
2023/07/11 09:10:43;;;;;;;8.90;2.65;;;28.70;89.00;;;;;;5028966;28;20033;-65
2023/07/11 09:13:20;;;;;;;4.60;2.47;;;28.80;89.10;;;;;;4998648;28;20037;-64
2023/07/11 09:16:24;;;;;;;5.97;2.92;;;29.00;88.80;;;;;;4996804;28;20045;-65
2023/07/11 09:19:30;;;;;;;5.63;2.78;;;28.90;89.20;;;;;;5029953;28;20076;-65
2023/07/11 09:22:14;;;;;;;6.55;2.78;;;29.10;89.10;;;;;;5027092;28;20525;-65
2023/07/11 09:24:55;;;;;;;6.32;2.55;;;29.30;88.30;;;;;;5029110;28;20382;-66
2023/07/11 09:27:27;;;;;;;5.88;2.33;;;29.30;89.10;;;;;;4992487;28;20026;-66
2023/07/11 09:29:54;;;;;;;13.65;2.67;;;29.40;88.30;;;;;;5012448;28;20040;-64
2023/07/11 09:32:33;;;;;;;5.53;2.70;;;29.40;88.20;;;;;;5029680;28;20029;-64
2023/07/11 09:35:28;;;;;;;5.47;2.15;;;29.50;87.90;;;;;;5027568;28;20037;-65
2023/07/11 09:38:35;;;;;;;4.38;2.17;;;29.40;88.30;;;;;;5029132;28;20116;-66
2023/07/11 09:41:12;;;;;;;7.68;2.67;;;29.50;88.10;;;;;;5015085;28;20037;-66
2023/07/11 09:43:38;;;;;;;4.57;2.35;;;29.60;88.20;;;;;;5030826;28;20298;-66
2023/07/11 09:46:14;;;;;;;3.35;2.13;;;29.80;87.80;;;;;;5034004;28;20029;-65
2023/07/11 09:48:44;;;;;;;3.35;1.98;;;29.90;88.00;;;;;;5033446;28;20100;-65
2023/07/11 09:51:39;;;;;;;3.95;2.53;;;30.10;87.50;;;;;;5016714;28;20033;-65
2023/07/11 09:54:18;;;;;;;5.20;2.42;;;30.10;86.40;;;;;;5032918;28;20041;-66
2023/07/11 09:56:47;;;;;;;4.03;1.97;;;30.20;87.30;;;;;;5033906;28;20037;-66
2023/07/11 09:59:15;;;;;;;5.75;2.10;;;30.40;86.80;;;;;;5032896;28;20037;-66
2023/07/11 10:01:41;;;;;;;6.30;2.15;;;30.30;87.20;;;;;;5016204;28;20061;-66
2023/07/11 10:04:14;;;;;;;3.63;1.83;;;30.30;86.50;;;;;;5015279;28;20072;-66
2023/07/11 10:07:04;;;;;;;6.70;2.25;;;30.40;86.80;;;;;;5033181;28;20055;-65
2023/07/11 10:09:33;;;;;;;5.22;1.83;;;30.60;86.40;;;;;;5032767;28;20504;-65
2023/07/11 10:12:04;;;;;;;5.73;2.13;;;30.60;86.90;;;;;;5015806;28;20033;-66
2023/07/11 10:14:39;;;;;;;3.30;1.98;;;30.80;86.50;;;;;;5015714;28;20036;-66
2023/07/11 10:17:23;;;;;;;3.53;1.65;;;30.70;86.80;;;;;;5000031;28;20041;-66
2023/07/11 10:19:53;;;;;;;4.38;2.30;;;30.80;86.40;;;;;;5033508;28;20033;-65
2023/07/11 10:22:28;;;;;;;4.18;2.00;;;30.90;86.90;;;;;;5033910;28;20028;-66
2023/07/11 10:25:20;;;;;;;5.00;2.35;;;31.10;86.60;;;;;;5013995;28;20034;-66
2023/07/11 10:28:23;;;;;;;6.57;2.53;;;31.40;84.80;;;;;;5032426;28;20038;-66
2023/07/11 10:30:50;;;;;;;3.53;1.90;;;31.50;85.00;;;;;;5013988;28;20091;-65
2023/07/11 10:33:25;;;;;;;3.83;2.28;;;31.70;84.10;;;;;;5014892;28;20029;-66
2023/07/11 10:36:02;;;;;;;6.57;2.25;;;31.70;84.20;;;;;;4999330;28;20036;-65
2023/07/11 10:38:54;;;;;;;8.98;3.25;;;31.70;84.50;;;;;;5032094;28;20534;-65
2023/07/11 10:41:39;;;;;;;5.43;2.45;;;31.80;84.90;;;;;;5008156;28;20033;-66
2023/07/11 10:44:15;;;;;;;5.80;2.47;;;32.00;85.30;;;;;;4999565;28;20104;-66
2023/07/11 10:46:50;;;;;;;5.20;2.50;;;31.80;83.80;;;;;;5015926;28;20045;-65
2023/07/11 10:49:35;;;;;;;7.10;2.25;;;31.70;84.80;;;;;;5015023;28;20116;-66
2023/07/11 10:52:06;;;;;;;8.10;1.95;;;31.70;86.10;;;;;;5016139;28;20029;-66
2023/07/11 10:54:44;;;;;;;6.32;1.90;;;32.00;85.80;;;;;;5014127;28;20492;-66
2023/07/11 10:57:53;;;;;;;3.75;1.92;;;31.80;85.60;;;;;;5032785;28;20057;-66
2023/07/11 11:00:50;;;;;;;5.78;2.45;;;32.00;86.00;;;;;;5024868;28;20037;-66
2023/07/11 11:03:37;;;;;;;9.02;1.95;;;32.30;85.50;;;;;;5006326;28;20095;-67
2023/07/11 11:06:35;;;;;;;4.47;2.13;;;32.40;85.10;;;;;;5014878;28;20037;-66
2023/07/11 11:09:40;;;;;;;5.72;2.30;;;32.50;85.20;;;;;;5014166;28;20041;-65
2023/07/11 11:12:23;;;;;;;5.03;2.28;;;32.40;84.50;;;;;;5016115;28;20568;-65
2023/07/11 11:15:19;;;;;;;3.83;1.83;;;32.40;85.20;;;;;;5032083;28;20137;-66
2023/07/11 11:18:12;;;;;;;5.22;2.10;;;32.50;85.40;;;;;;5015460;28;20033;-66
2023/07/11 11:20:56;;;;;;;8.27;2.25;;;32.40;85.00;;;;;;5026728;28;20111;-66
2023/07/11 11:23:57;;;;;;;5.28;1.92;;;32.30;84.80;;;;;;5030974;28;20436;-67
2023/07/11 11:26:54;;;;;;;5.40;2.40;;;32.50;84.30;;;;;;5006739;28;20074;-66
2023/07/11 11:29:41;;;;;;;3.70;2.17;;;32.80;83.40;;;;;;5031735;28;20032;-66
2023/07/11 11:32:46;;;;;;;7.00;2.60;;;32.90;83.10;;;;;;5032293;28;20038;-66
2023/07/11 11:35:45;;;;;;;5.45;2.38;;;33.30;83.10;;;;;;5030849;28;20456;-66
2023/07/11 11:39:01;;;;;;;7.80;2.33;;;33.50;83.10;;;;;;5031117;28;20049;-66
2023/07/11 11:41:58;;;;;;;8.68;2.55;;;33.50;80.90;;;;;;4978287;28;20499;-67
2023/07/11 11:45:09;;;;;;;8.70;2.47;;;33.10;81.40;;;;;;5025903;28;20045;-66
2023/07/11 11:47:37;;;;;;;7.15;2.65;;;33.40;81.30;;;;;;5013334;28;20041;-64
2023/07/11 11:50:05;;;;;;;7.57;2.58;;;33.30;80.40;;;;;;5031306;28;20033;-66
2023/07/11 11:52:35;;;;;;;7.40;2.40;;;33.60;80.80;;;;;;5030781;28;20036;-66
2023/07/11 11:55:01;;;;;;;6.53;2.10;;;33.70;79.30;;;;;;5013752;28;20056;-66
2023/07/11 11:57:33;;;;;;;9.75;2.40;;;33.90;79.70;;;;;;5030429;28;20501;-65
2023/07/11 12:00:00;;;;;;;6.30;1.98;;;33.60;79.90;;;;;;5031248;28;20120;-66
2023/07/11 12:02:44;;;;;;;6.43;3.05;;;34.00;80.70;;;;;;4980418;28;20072;-66
2023/07/11 12:05:19;;;;;;;6.05;2.55;;;34.10;79.40;;;;;;5029637;28;20026;-65
2023/07/11 12:07:45;;;;;;;6.70;2.72;;;34.40;78.90;;;;;;4996385;28;20037;-65
2023/07/11 12:10:24;;;;;;;6.78;2.50;;;34.60;79.10;;;;;;5031179;28;20155;-65
2023/07/11 12:13:29;;;;;;;10.95;3.10;;;34.40;77.40;;;;;;5001283;28;20021;-65
2023/07/11 12:15:56;;;;;;;10.63;3.20;;;34.80;77.60;;;;;;5013373;28;20048;-66
2023/07/11 12:18:49;;;;;;;5.57;2.90;;;35.20;76.40;;;;;;5041451;28;20389;-67
2023/07/11 12:21:17;;;;;;;4.80;2.25;;;35.10;76.00;;;;;;5014716;28;20068;-66
2023/07/11 12:24:10;;;;;;;14.55;3.08;;;35.30;75.60;;;;;;5029853;28;20390;-66
2023/07/11 12:26:35;;;;;;;4.35;2.38;;;35.10;75.30;;;;;;5015612;28;20044;-66
2023/07/11 12:29:47;;;;;;;10.43;2.40;;;34.40;76.50;;;;;;5012711;28;20041;-66
2023/07/11 12:32:31;;;;;;;5.35;2.72;;;35.00;75.20;;;;;;5030678;28;20025;-66
2023/07/11 12:35:22;;;;;;;6.70;2.38;;;35.00;76.10;;;;;;5027914;28;20168;-66
2023/07/11 12:38:00;;;;;;;4.47;2.17;;;35.30;75.30;;;;;;5013048;28;20037;-66
2023/07/11 12:41:18;;;;;;;5.85;2.78;;;35.20;74.70;;;;;;5023768;28;20592;-66
2023/07/11 12:43:47;;;;;;;3.28;1.90;;;35.70;74.50;;;;;;5014718;28;20032;-65
2023/07/11 12:46:34;;;;;;;6.72;2.40;;;35.90;74.10;;;;;;5013218;28;20033;-66
2023/07/11 12:49:04;;;;;;;4.10;2.13;;;36.10;73.80;;;;;;5013060;28;20041;-66
2023/07/11 12:51:41;;;;;;;4.88;1.75;;;36.40;72.50;;;;;;5013112;28;20040;-66
2023/07/11 12:54:10;;;;;;;4.32;2.13;;;36.80;69.60;;;;;;5012090;28;20072;-66
2023/07/11 12:56:42;;;;;;;4.65;2.30;;;36.40;69.70;;;;;;5030169;28;20036;-66
2023/07/11 12:59:30;;;;;;;6.38;2.08;;;36.00;70.90;;;;;;5012648;28;20029;-66
2023/07/11 13:02:04;;;;;;;5.25;1.95;;;36.10;72.60;;;;;;5030337;28;20033;-66
2023/07/11 13:05:02;;;;;;;6.65;2.60;;;36.50;71.40;;;;;;4995953;28;20051;-64
2023/07/11 13:07:32;;;;;;;5.55;2.50;;;36.50;72.20;;;;;;4982642;28;20042;-66
2023/07/11 13:09:59;;;;;;;3.75;1.90;;;36.40;70.50;;;;;;5030288;28;20034;-66
2023/07/11 13:12:37;;;;;;;3.95;1.90;;;36.60;69.90;;;;;;5029565;28;20528;-65
2023/07/11 13:15:16;;;;;;;2.65;1.70;;;36.70;69.00;;;;;;5009014;28;20493;-66
2023/07/11 13:17:46;;;;;;;3.78;1.85;;;37.00;69.00;;;;;;5011084;28;20037;-66
2023/07/11 13:20:34;;;;;;;3.42;1.70;;;37.50;67.80;;;;;;4996198;28;20091;-66
2023/07/11 13:23:00;;;;;;;3.80;1.75;;;37.30;66.60;;;;;;4997154;28;20064;-67
2023/07/11 13:25:34;;;;;;;3.25;1.80;;;36.40;67.70;;;;;;5029595;28;20100;-66
2023/07/11 13:28:00;;;;;;;4.20;2.22;;;36.00;68.30;;;;;;5011817;28;20099;-67
2023/07/11 13:30:36;;;;;;;3.90;2.15;;;35.80;68.80;;;;;;5047833;22;20049;-74
2023/07/11 13:33:12;;;;;;;3.30;1.80;;;36.00;68.50;;;;;;5037536;28;20198;-77
2023/07/11 13:35:57;;;;;;;3.75;1.98;;;36.40;67.00;;;;;;5008741;28;20037;-76
2023/07/11 13:38:41;;;;;;;5.80;2.00;;;37.00;66.50;;;;;;5013750;28;20140;-76
2023/07/11 13:41:16;;;;;;;5.60;1.92;;;37.70;65.90;;;;;;5047071;28;20037;-77
2023/07/11 13:43:45;;;;;;;6.20;1.90;;;37.80;64.70;;;;;;5033473;28;20028;-77
2023/07/11 13:46:15;;;;;;;2.95;1.77;;;37.50;64.80;;;;;;5046297;28;20124;-76
2023/07/11 13:48:45;;;;;;;3.75;1.85;;;38.20;63.50;;;;;;5016037;28;20120;-76
2023/07/11 13:51:33;;;;;;;2.60;1.75;;;38.20;63.20;;;;;;5046979;28;20029;-76
2023/07/11 13:54:21;;;;;;;4.63;1.77;;;38.30;63.60;;;;;;5038723;28;20034;-77
2023/07/11 13:56:48;;;;;;;6.30;2.58;;;38.60;63.60;;;;;;5005411;28;20037;-76
2023/07/11 13:59:15;;;;;;;4.70;2.05;;;38.60;62.60;;;;;;5036425;28;20056;-77
2023/07/11 14:01:41;;;;;;;3.70;1.85;;;38.00;62.90;;;;;;5033962;28;20091;-76
2023/07/11 14:04:23;;;;;;;2.38;1.50;;;38.00;62.60;;;;;;5030266;28;20032;-76
2023/07/11 14:06:50;;;;;;;3.53;2.00;;;38.90;61.60;;;;;;5012779;28;20039;-76
2023/07/11 14:09:16;;;;;;;2.22;1.45;;;38.60;61.50;;;;;;5030389;28;20125;-76
2023/07/11 14:11:43;;;;;;;6.82;3.75;;;38.00;62.20;;;;;;5029823;28;22217;-77
2023/07/11 14:14:16;;;;;;;4.03;1.90;;;38.30;62.20;;;;;;5014654;28;20056;-76
2023/07/11 14:16:43;;;;;;;2.92;1.65;;;38.90;61.10;;;;;;4998315;28;20053;-76
2023/07/11 14:19:34;;;;;;;2.97;1.58;;;39.40;60.50;;;;;;5040084;28;20076;-77
2023/07/11 14:22:18;;;;;;;5.90;1.85;;;40.10;58.50;;;;;;5034619;28;20045;-75
2023/07/11 14:24:44;;;;;;;3.47;1.90;;;39.40;59.70;;;;;;5002414;28;20736;-77
2023/07/11 14:27:15;;;;;;;3.15;1.30;;;39.60;59.50;;;;;;5027793;28;20090;-75
2023/07/11 14:29:41;;;;;;;5.43;1.75;;;39.40;59.60;;;;;;5051234;28;20515;-76
2023/07/11 14:32:19;;;;;;;2.45;1.30;;;39.50;58.90;;;;;;5028124;28;20456;-77
2023/07/11 14:34:45;;;;;;;2.90;1.38;;;39.40;58.30;;;;;;5031722;28;20033;-76
2023/07/11 14:37:17;;;;;;;3.65;1.55;;;39.50;57.70;;;;;;5045445;28;20040;-76
2023/07/11 14:39:43;;;;;;;3.50;1.55;;;38.40;59.20;;;;;;5048167;28;20033;-77
2023/07/11 14:42:27;;;;;;;4.07;1.88;;;38.10;59.80;;;;;;5029233;28;20032;-77
2023/07/11 14:44:54;;;;;;;4.03;1.75;;;39.10;59.00;;;;;;5031973;28;20048;-77
2023/07/11 14:47:20;;;;;;;3.08;1.80;;;40.40;57.70;;;;;;5020557;28;20475;-75
2023/07/11 14:49:46;;;;;;;3.33;1.65;;;41.50;56.20;;;;;;5038229;28;20025;-77
2023/07/11 14:52:28;;;;;;;2.47;1.50;;;40.20;55.00;;;;;;5020535;28;20041;-78
2023/07/11 14:54:54;;;;;;;2.53;1.60;;;39.70;56.60;;;;;;5007889;28;20038;-76
2023/07/11 14:57:21;;;;;;;3.22;1.60;;;38.90;57.90;;;;;;5034995;28;20033;-75
2023/07/11 14:59:47;;;;;;;4.07;2.20;;;39.30;57.60;;;;;;5018343;28;20124;-77
2023/07/11 15:02:32;;;;;;;4.35;2.28;;;38.30;57.60;;;;;;5025036;28;20128;-76
2023/07/11 15:05:00;;;;;;;3.83;2.20;;;37.20;59.00;;;;;;5021242;28;20041;-76
2023/07/11 15:07:25;;;;;;;4.07;1.77;;;37.20;59.00;;;;;;5049688;28;20029;-77
2023/07/11 15:09:51;;;;;;;4.93;2.40;;;36.90;59.20;;;;;;5037006;28;20032;-77
2023/07/11 15:12:21;;;;;;;4.60;2.05;;;37.10;58.80;;;;;;5033031;28;20033;-77
2023/07/11 15:14:47;;;;;;;3.83;1.70;;;37.20;60.00;;;;;;5019186;28;20021;-77
2023/07/11 15:17:24;;;;;;;3.60;2.13;;;37.40;59.90;;;;;;5051272;28;20439;-77
2023/07/11 15:19:50;;;;;;;4.97;2.58;;;36.80;61.10;;;;;;5036911;28;20037;-77
2023/07/11 15:22:17;;;;;;;3.17;2.03;;;37.10;60.20;;;;;;5050667;28;20029;-77
2023/07/11 15:24:44;;;;;;;5.22;2.20;;;37.00;60.60;;;;;;5038809;28;20605;-78
2023/07/11 15:27:18;;;;;;;6.68;2.88;;;36.50;61.70;;;;;;5051208;28;20053;-78
2023/07/11 15:29:45;;;;;;;2.88;1.50;;;36.70;61.00;;;;;;5036568;28;20028;-76
2023/07/11 15:32:22;;;;;;;4.40;2.20;;;36.80;61.40;;;;;;5025825;28;20053;-77
2023/07/11 15:34:49;;;;;;;4.43;2.78;;;36.90;60.90;;;;;;5028338;28;20063;-77
2023/07/11 15:37:16;;;;;;;3.92;2.25;;;36.70;61.10;;;;;;5026051;28;20140;-77
2023/07/11 15:39:42;;;;;;;5.85;2.10;;;36.00;62.10;;;;;;5028149;28;20106;-76
2023/07/11 15:42:23;;;;;;;5.30;2.42;;;35.90;62.60;;;;;;5015163;28;20042;-76
2023/07/11 15:44:55;;;;;;;4.22;1.80;;;35.70;62.60;;;;;;5043359;28;20029;-77
2023/07/11 15:47:21;;;;;;;4.75;2.17;;;35.80;62.90;;;;;;5021253;28;20025;-77
2023/07/11 15:49:48;;;;;;;5.13;2.28;;;35.50;62.90;;;;;;5038044;28;20453;-77
2023/07/11 15:52:15;;;;;;;9.85;2.50;;;35.40;63.90;;;;;;4995391;28;20025;-76
2023/07/11 15:54:41;;;;;;;4.03;1.90;;;35.40;63.20;;;;;;5010742;28;20037;-77
2023/07/11 15:57:23;;;;;;;5.10;2.60;;;35.30;63.30;;;;;;5009292;28;20048;-78
2023/07/11 15:59:50;;;;;;;5.25;1.95;;;35.40;63.00;;;;;;5022133;28;20061;-78
2023/07/11 16:02:20;;;;;;;4.85;2.50;;;35.20;63.90;;;;;;4999660;28;20036;-77
2023/07/11 16:04:46;;;;;;;3.92;2.08;;;35.20;64.00;;;;;;5024789;28;20029;-77
2023/07/11 16:07:18;;;;;;;4.18;1.95;;;35.00;64.00;;;;;;5024542;28;20074;-76
2023/07/11 16:09:45;;;;;;;6.00;2.42;;;34.70;64.70;;;;;;5018507;28;20490;-77
2023/07/11 16:12:16;;;;;;;5.28;2.17;;;34.60;64.80;;;;;;5005970;28;20174;-76
2023/07/11 16:14:43;;;;;;;4.18;2.53;;;34.60;65.20;;;;;;5033926;28;20029;-78
2023/07/11 16:17:18;;;;;;;4.93;2.53;;;34.40;65.60;;;;;;4990892;28;20034;-77
2023/07/11 16:19:47;;;;;;;8.77;2.63;;;34.30;66.00;;;;;;5012048;28;20022;-77
2023/07/11 16:22:20;;;;;;;6.18;2.72;;;34.30;66.30;;;;;;5039525;28;20037;-75
2023/07/11 16:24:46;;;;;;;4.57;2.22;;;34.20;65.80;;;;;;5032134;28;20125;-77
2023/07/11 16:27:16;;;;;;;3.65;2.00;;;34.40;66.10;;;;;;5043030;28;20025;-77
2023/07/11 16:29:44;;;;;;;5.72;2.10;;;34.10;65.80;;;;;;5024846;28;20063;-77
2023/07/11 16:32:12;;;;;;;4.72;2.67;;;34.10;66.20;;;;;;5025184;28;20025;-77
2023/07/11 16:34:38;;;;;;;5.15;2.70;;;34.00;66.70;;;;;;5037649;28;20020;-80
2023/07/11 16:37:19;;;;;;;4.53;2.45;;;34.10;66.70;;;;;;5021436;28;20029;-78
2023/07/11 16:39:45;;;;;;;6.55;3.33;;;34.10;66.70;;;;;;4982057;28;20032;-79
2023/07/11 16:42:22;;;;;;;4.85;2.15;;;34.10;66.60;;;;;;5024952;28;20401;-77
2023/07/11 16:44:48;;;;;;;5.47;2.40;;;34.10;66.10;;;;;;5010096;28;20042;-77
2023/07/11 16:47:15;;;;;;;4.95;2.33;;;34.10;66.00;;;;;;5020747;28;20052;-74
2023/07/11 16:49:44;;;;;;;5.07;2.13;;;34.00;66.00;;;;;;5002629;28;20029;-76